Hansa Marburg — LXHM — position and weather

sailwx.info

Track history (hours):
 
Tides and Currents Weather Stations Pressure Air Temp Water Temp Dewpoint Dewpoint Depression Visibility Wind Speed Wind Dir Waves Ship Positions

Hansa Marburg

Last reported at 2017-Dec-11 16:59 UTC. Time now 2017-Dec-14 04:34 UTC.
Position N 46°30' E 030°44'.

Length 175 m; draft 8.7 m.

Type: Cargo ship. MMSI: 253161000.

Date/timePositionNaut miles runAvg speedWind from/ knotsBaromVisibWave heightAir tempDewpointWater temp
2017-Dec-11 16:59N 46°30' E 030°44'0 0.0
2017-Dec-11 16:29N 46°30' E 030°44'0 0.0
2017-Dec-11 15:44N 46°30' E 030°44'0 0.0
2017-Dec-11 15:29N 46°30' E 030°44'0 0.0
2017-Dec-11 14:59N 46°30' E 030°44'0 0.0
2017-Dec-11 14:20N 46°30' E 030°44'0 0.0
2017-Dec-11 13:56N 46°30' E 030°44'0 0.7
2017-Dec-11 13:30N 46°30' E 030°44'3 5.4
2017-Dec-11 13:00N 46°30' E 030°48'5 9.7
2017-Dec-11 12:30N 46°26' E 030°52'612.6
2017-Dec-11 12:00N 46°20' E 030°54'33413.3
2017-Dec-10 10:58N 40°57' E 028°59'716.1
2017-Dec-10 10:30N 40°52' E 028°51'22812.9
2017-Dec-09 16:52N 38°04' E 025°31'616.4
2017-Dec-09 16:30N 37°59' E 025°34'816.3
2017-Dec-09 16:00N 37°52' E 025°39'816.2
2017-Dec-09 15:30N 37°44' E 025°43'916.3
2017-Dec-09 14:57N 37°36' E 025°49'716.3
2017-Dec-09 14:30N 37°30' E 025°52'815.9
2017-Dec-09 13:59N 37°22' E 025°57'816.1
2017-Dec-09 13:31N 37°15' E 026°01'816.4
2017-Dec-09 13:00N 37°08' E 026°06'816.5
2017-Dec-09 12:31N 37°01' E 026°10'816.0
2017-Dec-09 12:00N 36°54' E 026°16'815.6
2017-Dec-09 11:30N 36°49' E 026°23'815.3
2017-Dec-09 11:00N 36°44' E 026°31'815.9
2017-Dec-09 10:30N 36°38' E 026°38'1016.2
2017-Dec-09 09:53N 36°31' E 026°47'716.5
2017-Dec-09 09:28N 36°27' E 026°53'  
Track history (hours):
 
Tides and Currents Weather Stations Pressure Air Temp Water Temp Dewpoint Dewpoint Depression Visibility Wind Speed Wind Dir Waves Ship Positions

Hansa Marburg

Last reported at 2017-Dec-11 16:59 UTC. Time now 2017-Dec-14 04:34 UTC.
Position N 46°30' E 030°44'.

Length 175 m; draft 8.7 m.

Type: Cargo ship. MMSI: 253161000.

Date/timePositionNaut miles runAvg speedWind from/ knotsBaromVisibWave heightAir tempDewpointWater temp
2017-Dec-11 16:59N 46°30' E 030°44'0 0.0
2017-Dec-11 16:29N 46°30' E 030°44'0 0.0
2017-Dec-11 15:44N 46°30' E 030°44'0 0.0
2017-Dec-11 15:29N 46°30' E 030°44'0 0.0
2017-Dec-11 14:59N 46°30' E 030°44'0 0.0
2017-Dec-11 14:20N 46°30' E 030°44'0 0.0
2017-Dec-11 13:56N 46°30' E 030°44'0 0.7
2017-Dec-11 13:30N 46°30' E 030°44'3 5.4
2017-Dec-11 13:00N 46°30' E 030°48'5 9.7
2017-Dec-11 12:30N 46°26' E 030°52'612.6
2017-Dec-11 12:00N 46°20' E 030°54'33413.3
2017-Dec-10 10:58N 40°57' E 028°59'716.1
2017-Dec-10 10:30N 40°52' E 028°51'22812.9
2017-Dec-09 16:52N 38°04' E 025°31'616.4
2017-Dec-09 16:30N 37°59' E 025°34'816.3
2017-Dec-09 16:00N 37°52' E 025°39'816.2
2017-Dec-09 15:30N 37°44' E 025°43'916.3
2017-Dec-09 14:57N 37°36' E 025°49'716.3
2017-Dec-09 14:30N 37°30' E 025°52'815.9
2017-Dec-09 13:59N 37°22' E 025°57'816.1
2017-Dec-09 13:31N 37°15' E 026°01'816.4
2017-Dec-09 13:00N 37°08' E 026°06'816.5
2017-Dec-09 12:31N 37°01' E 026°10'816.0
2017-Dec-09 12:00N 36°54' E 026°16'815.6
2017-Dec-09 11:30N 36°49' E 026°23'815.3
2017-Dec-09 11:00N 36°44' E 026°31'815.9
2017-Dec-09 10:30N 36°38' E 026°38'1016.2
2017-Dec-09 09:53N 36°31' E 026°47'716.5
2017-Dec-09 09:28N 36°27' E 026°53'  

Dump ship's entire track history